Time;durP1;ratioP1;P1;durP2;ratioP2;P2;SDS_P1;SDS_P2;PMS_P1;PMS_P2;Temp;Humidity;BMP_temperature;BMP_pressure;BME280_temperature;BME280_humidity;BME280_pressure;Samples;Min_cycle;Max_cycle;Signal;HPM_P1;HPM_P2
2023/07/14 00:02:27;;;;;;;31.05;10.10;;;24.40;99.90;;;;;;5089758;28;20039;-52
2023/07/14 00:05:33;;;;;;;29.27;10.80;;;24.40;99.90;;;;;;5090272;28;20031;-55
2023/07/14 00:08:39;;;;;;;29.50;9.68;;;24.30;99.90;;;;;;5090664;28;20039;-53
2023/07/14 00:11:44;;;;;;;26.10;9.82;;;24.30;99.90;;;;;;5084905;28;20050;-54
2023/07/14 00:14:48;;;;;;;23.08;9.57;;;24.20;99.90;;;;;;5070227;28;20043;-53
2023/07/14 00:18:01;;;;;;;26.85;9.68;;;24.20;99.90;;;;;;5070374;28;20048;-55
2023/07/14 00:21:12;;;;;;;27.13;9.93;;;24.20;99.90;;;;;;5069824;28;20047;-55
2023/07/14 00:24:18;;;;;;;20.90;8.95;;;24.20;99.90;;;;;;5070242;28;20067;-56
2023/07/14 00:27:24;;;;;;;28.13;9.50;;;24.20;99.90;;;;;;5070162;28;20047;-53
2023/07/14 00:30:28;;;;;;;29.73;10.00;;;24.10;99.90;;;;;;5070168;28;20059;-54
2023/07/14 00:33:33;;;;;;;29.00;9.23;;;24.10;99.90;;;;;;5068383;28;20051;-52
2023/07/14 00:36:37;;;;;;;24.60;9.68;;;24.10;99.90;;;;;;5080947;28;20052;-53
2023/07/14 00:39:43;;;;;;;20.17;8.73;;;24.10;99.90;;;;;;5070066;28;20060;-55
2023/07/14 00:42:52;;;;;;;19.17;9.07;;;24.00;99.90;;;;;;5068914;28;20517;-52
2023/07/14 00:45:57;;;;;;;28.17;10.57;;;24.00;99.90;;;;;;5068810;28;20047;-53
2023/07/14 00:49:10;;;;;;;27.48;9.20;;;24.00;99.90;;;;;;5069570;28;20051;-52
2023/07/14 00:52:27;;;;;;;43.53;10.50;;;24.00;99.90;;;;;;5068006;28;20069;-51
2023/07/14 00:55:38;;;;;;;27.13;10.10;;;24.00;99.90;;;;;;5073431;28;20055;-55
2023/07/14 00:58:49;;;;;;;26.90;9.63;;;23.90;99.90;;;;;;5073509;28;20403;-54
2023/07/14 01:02:16;;;;;;;30.33;10.53;;;23.90;99.90;;;;;;5072290;28;20048;-57
2023/07/14 01:05:20;;;;;;;20.25;9.30;;;23.90;99.90;;;;;;5072384;28;20043;-52
2023/07/14 01:08:25;;;;;;;29.30;9.02;;;23.90;99.90;;;;;;5073494;28;20055;-52
2023/07/14 01:11:41;;;;;;;28.30;9.45;;;23.80;99.90;;;;;;5072111;28;20441;-51
2023/07/14 01:14:49;;;;;;;26.55;9.02;;;23.80;99.90;;;;;;5073111;28;20410;-54
2023/07/14 01:17:54;;;;;;;28.20;10.45;;;23.80;99.90;;;;;;5073399;28;20043;-52
2023/07/14 01:20:58;;;;;;;25.02;9.07;;;23.80;99.90;;;;;;5073191;28;20044;-51
2023/07/14 01:24:39;;;;;;;24.42;9.35;;;23.80;99.90;;;;;;5072891;28;20052;-53
2023/07/14 01:27:46;;;;;;;24.52;9.45;;;23.80;99.90;;;;;;5072563;28;20058;-55
2023/07/14 01:30:50;;;;;;;24.63;8.40;;;23.80;99.90;;;;;;5072118;28;20043;-52
2023/07/14 01:33:56;;;;;;;31.88;9.77;;;23.90;99.90;;;;;;5071965;28;20040;-51
2023/07/14 01:37:00;;;;;;;25.17;9.18;;;23.90;99.90;;;;;;5071873;28;20513;-51
2023/07/14 01:40:11;;;;;;;23.15;9.82;;;23.90;99.90;;;;;;5071969;28;20039;-53
2023/07/14 01:43:16;;;;;;;31.42;10.35;;;23.80;99.90;;;;;;5071290;28;20048;-53
2023/07/14 01:46:21;;;;;;;24.73;9.70;;;23.60;99.90;;;;;;5072843;28;20050;-54
2023/07/14 01:49:37;;;;;;;22.73;10.70;;;23.40;99.90;;;;;;5072710;28;20509;-55
2023/07/14 01:52:42;;;;;;;27.67;10.95;;;23.30;99.90;;;;;;5071972;28;20043;-53
2023/07/14 01:55:49;;;;;;;31.50;11.23;;;23.10;99.90;;;;;;5072575;28;20048;-52
2023/07/14 01:59:17;;;;;;;28.23;12.23;;;23.00;99.90;;;;;;5071622;28;20055;-52
2023/07/14 02:02:32;;;;;;;22.73;11.77;;;22.90;99.90;;;;;;5070882;28;20060;-54
2023/07/14 02:05:38;;;;;;;31.48;11.57;;;22.80;99.90;;;;;;5071284;28;20048;-54
2023/07/14 02:08:46;;;;;;;26.95;10.90;;;22.80;99.90;;;;;;5071870;28;20521;-51
2023/07/14 02:11:55;;;;;;;25.48;11.60;;;22.80;99.90;;;;;;5071435;28;20039;-56
2023/07/14 02:15:06;;;;;;;34.60;12.98;;;22.80;99.90;;;;;;5071116;28;20043;-56
2023/07/14 02:18:15;;;;;;;30.02;12.65;;;22.80;99.90;;;;;;5071960;28;20043;-55
2023/07/14 02:21:25;;;;;;;22.73;10.15;;;22.80;99.90;;;;;;5070774;28;20506;-52
2023/07/14 02:24:30;;;;;;;29.65;13.20;;;22.80;99.90;;;;;;5070960;28;20043;-52
2023/07/14 02:27:34;;;;;;;28.15;12.52;;;22.80;99.90;;;;;;5071078;28;20443;-52
2023/07/14 02:30:39;;;;;;;32.35;13.95;;;22.80;99.90;;;;;;5071814;28;20044;-51
2023/07/14 02:33:45;;;;;;;26.40;12.13;;;22.80;99.90;;;;;;5071320;28;20068;-53
2023/07/14 02:36:58;;;;;;;35.15;12.68;;;22.80;99.90;;;;;;5070931;28;20047;-53
2023/07/14 02:40:04;;;;;;;35.05;12.63;;;22.70;99.90;;;;;;5071814;28;20051;-51
2023/07/14 02:43:12;;;;;;;28.33;12.45;;;22.70;99.90;;;;;;5082437;28;20047;-54
2023/07/14 02:46:26;;;;;;;24.65;11.52;;;22.70;99.90;;;;;;5070940;28;20039;-51
2023/07/14 02:49:30;;;;;;;27.88;11.05;;;22.70;99.90;;;;;;5071641;28;20044;-53
2023/07/14 02:52:34;;;;;;;25.42;12.10;;;22.70;99.90;;;;;;5071278;28;20051;-55
2023/07/14 02:55:39;;;;;;;23.25;10.90;;;22.70;99.90;;;;;;5081802;28;20039;-56
2023/07/14 02:58:48;;;;;;;28.27;11.30;;;22.60;99.90;;;;;;5070526;28;20403;-54
2023/07/14 03:01:52;;;;;;;43.72;14.20;;;22.60;99.90;;;;;;5070776;28;20052;-54
2023/07/14 03:04:56;;;;;;;29.65;12.73;;;22.50;99.90;;;;;;5070876;28;20063;-53
2023/07/14 03:08:00;;;;;;;25.95;12.27;;;22.50;99.90;;;;;;5071189;28;20052;-54
2023/07/14 03:11:05;;;;;;;30.02;12.90;;;22.50;99.90;;;;;;5070180;28;20076;-52
2023/07/14 03:14:10;;;;;;;33.55;12.77;;;22.40;99.90;;;;;;5069491;28;20418;-55
2023/07/14 03:17:14;;;;;;;25.27;12.45;;;22.40;99.90;;;;;;5070116;28;20434;-53
2023/07/14 03:20:18;;;;;;;26.90;13.35;;;22.30;99.90;;;;;;5070891;28;20043;-55
2023/07/14 03:23:23;;;;;;;47.35;14.15;;;22.30;99.90;;;;;;5070645;28;20048;-52
2023/07/14 03:26:27;;;;;;;32.70;13.90;;;22.30;99.90;;;;;;5070763;28;20055;-56
2023/07/14 03:29:31;;;;;;;26.55;12.90;;;22.40;99.90;;;;;;5069916;28;20047;-51
2023/07/14 03:32:35;;;;;;;22.35;12.70;;;22.30;99.90;;;;;;5070127;28;20538;-51
2023/07/14 03:35:39;;;;;;;29.35;13.85;;;22.30;99.90;;;;;;5069504;28;20060;-54
2023/07/14 03:38:45;;;;;;;28.98;14.05;;;22.30;99.90;;;;;;5069601;28;20067;-52
2023/07/14 03:41:49;;;;;;;28.92;13.25;;;22.30;99.90;;;;;;5069373;28;20430;-52
2023/07/14 03:44:52;;;;;;;29.02;14.02;;;22.20;99.90;;;;;;5070001;28;20047;-52
2023/07/14 03:47:56;;;;;;;35.70;14.18;;;22.10;99.90;;;;;;5070245;28;20039;-52
2023/07/14 03:51:02;;;;;;;28.92;13.95;;;22.10;99.90;;;;;;5070564;28;20518;-53
2023/07/14 03:54:07;;;;;;;37.58;14.50;;;22.00;99.90;;;;;;5070434;28;20541;-52
2023/07/14 03:57:11;;;;;;;25.38;13.35;;;22.00;99.90;;;;;;5070396;28;20056;-52
2023/07/14 04:00:17;;;;;;;38.70;14.98;;;22.00;99.90;;;;;;5069240;28;20062;-52
2023/07/14 04:03:26;;;;;;;28.45;14.75;;;22.00;99.90;;;;;;5069056;28;20043;-54
2023/07/14 04:06:31;;;;;;;26.52;12.80;;;22.00;99.90;;;;;;5069684;28;20040;-52
2023/07/14 04:09:35;;;;;;;36.35;13.77;;;22.00;99.90;;;;;;5070175;28;20506;-52
2023/07/14 04:12:39;;;;;;;27.52;13.02;;;22.10;99.90;;;;;;5069068;28;20044;-55
2023/07/14 04:15:44;;;;;;;27.05;13.43;;;22.10;99.90;;;;;;5068829;28;20044;-60
2023/07/14 04:18:48;;;;;;;33.03;13.57;;;22.10;99.90;;;;;;5070111;28;20054;-54
2023/07/14 04:21:52;;;;;;;21.45;12.13;;;22.10;99.90;;;;;;5069836;28;20039;-55
2023/07/14 04:24:58;;;;;;;31.17;13.00;;;22.10;99.90;;;;;;5069379;28;20075;-54
2023/07/14 04:28:02;;;;;;;33.58;13.90;;;22.30;99.90;;;;;;5069788;28;20055;-53
2023/07/14 04:31:07;;;;;;;27.27;12.68;;;22.30;99.90;;;;;;5069621;28;20052;-51
2023/07/14 04:34:11;;;;;;;29.77;14.52;;;22.40;99.90;;;;;;5069530;28;20051;-52
2023/07/14 04:37:16;;;;;;;34.88;15.13;;;22.60;99.90;;;;;;5069807;28;20425;-52
2023/07/14 04:40:19;;;;;;;31.77;12.45;;;23.20;99.90;;;;;;5069824;28;20040;-51
2023/07/14 04:43:23;;;;;;;24.05;11.75;;;24.80;99.90;;;;;;5069286;28;20047;-52
2023/07/14 04:46:27;;;;;;;34.88;12.75;;;26.10;99.90;;;;;;5069570;28;20039;-54
2023/07/14 04:49:31;;;;;;;32.15;12.15;;;27.00;99.90;;;;;;5069654;28;20497;-51
2023/07/14 04:52:35;;;;;;;27.75;10.65;;;27.90;99.90;;;;;;5069571;28;20036;-52
2023/07/14 04:55:41;;;;;;;31.55;11.23;;;28.60;99.90;;;;;;5069040;28;20415;-52
2023/07/14 04:58:45;;;;;;;24.90;11.95;;;29.20;99.90;;;;;;5069578;28;20040;-52
2023/07/14 05:01:49;;;;;;;26.02;9.80;;;29.60;99.90;;;;;;5069290;28;20266;-51
2023/07/14 05:05:14;;;;;;;25.08;10.70;;;29.80;99.90;;;;;;5069695;28;20064;-52
2023/07/14 05:08:18;;;;;;;26.45;10.45;;;30.30;99.90;;;;;;5069720;28;20039;-52
2023/07/14 05:11:23;;;;;;;29.67;9.50;;;30.70;99.90;;;;;;5069970;28;20056;-54
2023/07/14 05:14:27;;;;;;;29.48;9.13;;;30.70;99.90;;;;;;5069574;28;20526;-51
2023/07/14 05:17:34;;;;;;;21.80;7.72;;;30.70;99.90;;;;;;5069543;28;20043;-53
2023/07/14 05:20:43;;;;;;;17.85;8.57;;;31.30;99.90;;;;;;5069699;28;20048;-55
2023/07/14 05:23:47;;;;;;;23.23;7.65;;;31.80;99.90;;;;;;5069604;28;20276;-53
2023/07/14 05:26:51;;;;;;;17.83;6.88;;;32.60;99.90;;;;;;5069388;28;20051;-53
2023/07/14 05:29:56;;;;;;;15.70;7.50;;;33.20;99.90;;;;;;5069743;28;20055;-51
2023/07/14 05:32:59;;;;;;;18.80;7.78;;;33.60;99.90;;;;;;5069163;28;20047;-52
2023/07/14 05:36:04;;;;;;;19.15;7.50;;;33.70;99.90;;;;;;5089148;28;20043;-55
2023/07/14 05:39:09;;;;;;;27.70;8.50;;;33.90;99.90;;;;;;5089798;28;20055;-55
2023/07/14 05:42:13;;;;;;;26.67;8.43;;;31.80;99.90;;;;;;5093189;28;20387;-54
2023/07/14 05:45:18;;;;;;;18.45;9.30;;;30.60;99.90;;;;;;5092073;28;20063;-53
2023/07/14 05:48:22;;;;;;;19.15;8.30;;;30.00;99.90;;;;;;5093265;28;20047;-52
2023/07/14 05:51:26;;;;;;;21.10;8.20;;;30.50;99.90;;;;;;5092155;28;20509;-55
2023/07/14 05:54:30;;;;;;;26.85;8.15;;;30.90;99.90;;;;;;5092806;28;20043;-55
2023/07/14 05:57:36;;;;;;;22.60;8.07;;;31.50;99.90;;;;;;5092301;28;20047;-51
2023/07/14 06:00:40;;;;;;;21.75;8.13;;;32.00;99.90;;;;;;5091904;28;20063;-54
2023/07/14 06:03:44;;;;;;;26.60;9.15;;;32.50;99.90;;;;;;5092687;28;20035;-55
2023/07/14 06:06:48;;;;;;;16.75;7.75;;;32.30;99.90;;;;;;5092225;28;20059;-52
2023/07/14 06:09:52;;;;;;;22.25;7.90;;;32.60;99.90;;;;;;5092656;28;20035;-56
2023/07/14 06:12:55;;;;;;;17.75;6.93;;;33.00;99.90;;;;;;5092098;28;20513;-53
2023/07/14 06:16:01;;;;;;;21.20;8.50;;;33.60;99.90;;;;;;5091069;28;20106;-52
2023/07/14 06:19:05;;;;;;;20.25;7.13;;;33.20;99.90;;;;;;5092075;28;20043;-55
2023/07/14 06:22:09;;;;;;;22.08;8.10;;;32.60;99.90;;;;;;5092175;28;20422;-52
2023/07/14 06:25:14;;;;;;;17.55;6.80;;;32.80;99.90;;;;;;5092073;28;20047;-53
2023/07/14 06:28:18;;;;;;;20.75;7.65;;;33.30;99.90;;;;;;5091631;28;20509;-52
2023/07/14 06:31:23;;;;;;;25.52;8.10;;;33.30;99.90;;;;;;5091360;28;20062;-52
2023/07/14 06:34:27;;;;;;;23.08;7.35;;;33.30;99.90;;;;;;5091794;28;20042;-52
2023/07/14 06:37:31;;;;;;;25.98;8.85;;;33.80;99.90;;;;;;5091753;28;20055;-52
2023/07/14 06:40:35;;;;;;;26.02;8.85;;;33.00;99.90;;;;;;5084617;28;20047;-55
2023/07/14 06:43:39;;;;;;;24.58;7.97;;;32.60;99.90;;;;;;5071566;28;20044;-53
2023/07/14 06:46:43;;;;;;;24.95;8.48;;;33.00;99.90;;;;;;5071241;28;20047;-55
2023/07/14 06:49:47;;;;;;;28.27;8.63;;;33.40;99.90;;;;;;5071507;28;20674;-56
2023/07/14 06:52:52;;;;;;;28.35;7.30;;;32.80;99.90;;;;;;5070953;28;20621;-55
2023/07/14 06:55:56;;;;;;;22.33;7.97;;;33.50;99.90;;;;;;5070932;28;20051;-52
2023/07/14 06:59:02;;;;;;;23.95;7.55;;;34.20;99.90;;;;;;5072064;28;20059;-56
2023/07/14 07:02:09;;;;;;;28.95;7.15;;;34.70;99.90;;;;;;5077111;28;20663;-52
2023/07/14 07:05:13;;;;;;;20.20;7.40;;;34.80;99.90;;;;;;5091418;28;20511;-53
2023/07/14 07:08:18;;;;;;;19.77;7.93;;;35.30;99.90;;;;;;5090972;28;20051;-56
2023/07/14 07:11:21;;;;;;;23.40;8.13;;;34.20;99.90;;;;;;5090946;28;20059;-56
2023/07/14 07:14:25;;;;;;;19.77;7.55;;;35.00;99.90;;;;;;5080263;28;20406;-52
2023/07/14 07:17:30;;;;;;;27.75;7.35;;;34.60;99.90;;;;;;5083077;28;20043;-55
2023/07/14 07:20:40;;;;;;;16.42;6.35;;;34.80;99.90;;;;;;5090921;28;20497;-54
2023/07/14 07:23:44;;;;;;;19.33;6.93;;;35.70;99.90;;;;;;5090816;28;20102;-52
2023/07/14 07:26:48;;;;;;;25.65;7.38;;;36.00;99.90;;;;;;5086416;28;20039;-55
2023/07/14 07:29:52;;;;;;;19.45;7.22;;;35.90;99.90;;;;;;5083793;28;20398;-53
2023/07/14 07:32:57;;;;;;;26.52;8.00;;;35.30;99.90;;;;;;5089814;28;20050;-52
2023/07/14 07:36:14;;;;;;;19.92;7.28;;;32.70;99.90;;;;;;5090422;28;20047;-55
2023/07/14 07:39:18;;;;;;;28.50;7.18;;;34.70;99.90;;;;;;5089768;28;20055;-52
2023/07/14 07:42:22;;;;;;;20.42;6.75;;;34.90;99.90;;;;;;5090479;28;20047;-53
2023/07/14 07:45:26;;;;;;;23.20;6.85;;;35.60;99.90;;;;;;5086038;28;20039;-54
2023/07/14 07:48:30;;;;;;;23.52;7.35;;;37.00;99.90;;;;;;5069911;28;20517;-56
2023/07/14 07:51:34;;;;;;;21.63;6.70;;;37.70;99.90;;;;;;5070435;28;20549;-56
2023/07/14 07:54:39;;;;;;;23.13;6.97;;;38.40;98.90;;;;;;5069948;28;20051;-52
2023/07/14 07:57:47;;;;;;;28.05;7.47;;;36.40;99.80;;;;;;5069906;28;20068;-52
2023/07/14 08:00:55;;;;;;;17.35;5.95;;;37.90;99.10;;;;;;5071029;28;20056;-56
2023/07/14 08:04:00;;;;;;;20.17;7.73;;;39.60;97.70;;;;;;5089091;28;20046;-53
2023/07/14 08:07:13;;;;;;;17.52;7.55;;;36.60;99.70;;;;;;5071341;28;20038;-53
2023/07/14 08:10:17;;;;;;;16.80;7.07;;;36.80;99.30;;;;;;5070005;28;20044;-52
2023/07/14 08:13:25;;;;;;;22.45;7.38;;;36.50;99.70;;;;;;5070938;28;20039;-51
2023/07/14 08:16:29;;;;;;;18.42;6.70;;;35.20;99.90;;;;;;5070104;28;20044;-54
2023/07/14 08:19:34;;;;;;;17.20;6.80;;;37.00;99.80;;;;;;5068506;28;20047;-53
2023/07/14 08:22:40;;;;;;;18.58;6.38;;;36.90;98.30;;;;;;5076008;28;20055;-52
2023/07/14 08:25:58;;;;;;;17.25;5.82;;;37.30;98.10;;;;;;5089549;28;20517;-54
2023/07/14 08:29:04;;;;;;;22.33;7.13;;;39.40;97.20;;;;;;5089405;28;20509;-54
2023/07/14 08:32:08;;;;;;;24.38;6.32;;;37.30;97.50;;;;;;5089474;28;20055;-55
2023/07/14 08:35:12;;;;;;;19.40;6.80;;;39.30;96.90;;;;;;5069354;28;20054;-51
2023/07/14 08:38:16;;;;;;;20.40;6.72;;;41.60;95.70;;;;;;5069298;28;20039;-53
2023/07/14 08:41:26;;;;;;;20.23;6.22;;;42.40;94.60;;;;;;5069644;28;20411;-53
2023/07/14 08:44:59;;;;;;;19.88;6.60;;;41.80;94.30;;;;;;5080428;28;20050;-53
2023/07/14 08:48:19;;;;;;;18.50;6.53;;;38.60;96.30;;;;;;5079753;28;20047;-53
2023/07/14 08:51:23;;;;;;;;;;;37.30;96.80;;;;;;5090318;28;20069;-55
2023/07/14 08:54:34;;;;;;;19.25;6.47;;;38.90;96.30;;;;;;5073841;28;19924;-56
2023/07/14 08:57:51;;;;;;;16.33;6.03;;;41.90;94.30;;;;;;5069591;28;20044;-57
2023/07/14 09:01:23;;;;;;;20.10;6.32;;;43.50;93.30;;;;;;5069607;28;20510;-52
2023/07/14 09:04:34;;;;;;;16.80;5.80;;;43.00;93.10;;;;;;5077688;28;20047;-56
2023/07/14 09:07:38;;;;;;;20.52;6.45;;;41.90;93.00;;;;;;5069161;28;20048;-55
2023/07/14 09:10:54;;;;;;;17.23;5.93;;;43.10;92.30;;;;;;5069153;28;20043;-57
2023/07/14 09:13:58;;;;;;;16.95;5.80;;;43.70;92.40;;;;;;5069247;28;20064;-54
2023/07/14 09:17:28;;;;;;;21.77;5.95;;;44.60;91.30;;;;;;5082516;28;20044;-53
2023/07/14 09:21:06;;;;;;;15.20;5.53;;;45.00;90.90;;;;;;5079711;28;20044;-53
2023/07/14 09:24:15;;;;;;;17.65;5.88;;;45.70;90.30;;;;;;5081581;28;20621;-56
2023/07/14 09:27:24;;;;;;;17.50;5.80;;;46.40;89.70;;;;;;5085601;28;20501;-54
2023/07/14 09:30:28;;;;;;;20.63;5.82;;;43.40;90.90;;;;;;5076748;28;20051;-54
2023/07/14 09:33:44;;;;;;;19.63;6.57;;;44.20;90.70;;;;;;5080385;28;20051;-56
2023/07/14 09:36:49;;;;;;;19.25;6.00;;;43.40;90.20;;;;;;5084916;28;20085;-57
2023/07/14 09:40:17;;;;;;;19.67;7.05;;;45.60;89.00;;;;;;5078456;28;20048;-53
2023/07/14 09:43:21;;;;;;;18.73;5.72;;;41.90;90.30;;;;;;5080174;28;20047;-56
2023/07/14 09:46:35;;;;;;;17.38;5.93;;;42.90;90.40;;;;;;5078500;28;20043;-57
2023/07/14 09:49:44;;;;;;;16.15;5.43;;;44.00;90.60;;;;;;5086569;28;20414;-57
2023/07/14 09:52:52;;;;;;;18.17;6.30;;;44.30;89.40;;;;;;5077349;28;20059;-53
2023/07/14 09:56:03;;;;;;;15.68;6.05;;;43.60;89.70;;;;;;5082499;28;20331;-53
2023/07/14 09:59:19;;;;;;;21.02;6.18;;;44.00;88.30;;;;;;5082257;28;20034;-52
2023/07/14 10:02:32;;;;;;;17.13;5.50;;;42.00;90.30;;;;;;5083803;28;20031;-54
2023/07/14 10:05:48;;;;;;;19.88;5.88;;;45.20;88.40;;;;;;5089686;28;20107;-52
2023/07/14 10:09:08;;;;;;;19.10;6.13;;;45.10;86.30;;;;;;5091491;28;20047;-53
2023/07/14 10:12:13;;;;;;;15.63;5.40;;;40.90;88.40;;;;;;5085543;28;20035;-56
2023/07/14 10:15:30;;;;;;;19.23;5.38;;;42.20;88.70;;;;;;5090043;28;20043;-53
2023/07/14 10:18:56;;;;;;;13.50;5.22;;;44.90;86.80;;;;;;5085189;28;20035;-53
2023/07/14 10:22:13;;;;;;;14.02;5.47;;;46.60;85.50;;;;;;5088367;28;20043;-52
2023/07/14 10:25:19;;;;;;;16.15;5.60;;;47.40;82.80;;;;;;5090880;28;20043;-55
2023/07/14 10:28:28;;;;;;;14.73;4.85;;;45.60;83.30;;;;;;5087831;28;20051;-54
2023/07/14 10:31:41;;;;;;;13.05;4.75;;;45.70;83.20;;;;;;5090079;28;20058;-56
2023/07/14 10:34:55;;;;;;;20.23;5.07;;;44.80;82.00;;;;;;5087288;28;20050;-55
2023/07/14 10:38:26;;;;;;;15.75;4.50;;;45.10;82.80;;;;;;5082484;28;20043;-57
2023/07/14 10:41:30;;;;;;;;;;;45.80;81.80;;;;;;5079245;28;20406;-55
2023/07/14 10:44:38;;;;;;;10.05;3.95;;;47.00;76.90;;;;;;5085155;28;19915;-56
2023/07/14 10:48:04;;;;;;;14.88;4.60;;;47.70;73.70;;;;;;5076873;28;20047;-55
2023/07/14 10:51:46;;;;;;;6.10;2.90;;;46.90;74.20;;;;;;5076776;28;20048;-56
2023/07/14 10:55:03;;;;;;;8.32;3.28;;;46.30;65.00;;;;;;5077572;28;20047;-56
2023/07/14 10:58:49;;;;;;;10.88;3.25;;;46.80;67.90;;;;;;5070988;28;20403;-55
2023/07/14 11:02:12;;;;;;;7.07;2.78;;;46.20;71.90;;;;;;5082226;28;20031;-52
2023/07/14 11:05:19;;;;;;;8.75;3.30;;;45.70;66.20;;;;;;5088148;28;20505;-57
2023/07/14 11:08:29;;;;;;;11.57;3.60;;;44.50;69.10;;;;;;5079187;28;20047;-55
2023/07/14 11:11:53;;;;;;;11.85;3.92;;;40.60;72.90;;;;;;5077902;28;20050;-55
2023/07/14 11:15:23;;;;;;;10.38;4.22;;;41.30;74.60;;;;;;5081096;28;20047;-53
2023/07/14 11:18:45;;;;;;;;;;;43.10;71.20;;;;;;5079515;28;20044;-56
2023/07/14 11:22:15;;;;;;;10.43;3.72;;;44.90;70.60;;;;;;5076363;28;19915;-51
2023/07/14 11:25:25;;;;;;;6.05;2.78;;;46.90;68.70;;;;;;5090720;28;20051;-54
2023/07/14 11:28:42;;;;;;;10.20;3.67;;;47.20;68.30;;;;;;5074750;28;20036;-51
2023/07/14 11:31:56;;;;;;;7.70;4.38;;;44.90;69.70;;;;;;5070178;28;20039;-51
2023/07/14 11:35:10;;;;;;;10.18;3.83;;;44.50;71.00;;;;;;5086648;28;21120;-55
2023/07/14 11:38:34;;;;;;;10.27;3.95;;;43.40;70.30;;;;;;5075419;28;20044;-52
2023/07/14 11:41:38;;;;;;;5.43;3.10;;;41.00;71.00;;;;;;5073261;28;20062;-52
2023/07/14 11:44:44;;;;;;;7.57;3.67;;;42.00;71.50;;;;;;5076917;28;20051;-51
2023/07/14 11:47:49;;;;;;;11.95;4.18;;;43.80;70.20;;;;;;5086338;28;20040;-53
2023/07/14 11:51:15;;;;;;;9.60;4.10;;;43.90;70.00;;;;;;5086120;28;20055;-51
2023/07/14 11:54:42;;;;;;;7.45;3.08;;;44.70;68.70;;;;;;5086318;28;20043;-51
2023/07/14 11:58:01;;;;;;;6.20;3.72;;;45.00;69.40;;;;;;5085571;28;20413;-55
2023/07/14 12:01:28;;;;;;;12.13;3.92;;;45.40;69.20;;;;;;5083851;28;20418;-53
2023/07/14 12:04:34;;;;;;;8.52;4.03;;;43.20;70.90;;;;;;5071448;28;20055;-54
2023/07/14 12:08:01;;;;;;;9.70;3.20;;;43.90;70.00;;;;;;5077341;28;20039;-53
2023/07/14 12:11:24;;;;;;;11.20;3.85;;;44.50;68.90;;;;;;5082706;28;20047;-51
2023/07/14 12:14:45;;;;;;;13.20;4.05;;;45.10;70.90;;;;;;5083361;28;20058;-56
2023/07/14 12:17:49;;;;;;;12.65;4.00;;;43.60;70.30;;;;;;5080210;28;20616;-52
2023/07/14 12:21:21;;;;;;;13.63;3.67;;;41.70;71.20;;;;;;5085362;28;20501;-52
2023/07/14 12:24:38;;;;;;;12.70;4.20;;;41.30;72.40;;;;;;5080502;28;20043;-52
2023/07/14 12:27:47;;;;;;;10.65;3.95;;;41.50;71.90;;;;;;5085508;28;20122;-56
2023/07/14 12:30:52;;;;;;;12.50;4.38;;;41.90;72.60;;;;;;5069978;28;20047;-52
2023/07/14 12:33:56;;;;;;;10.60;4.38;;;42.70;74.10;;;;;;5084721;28;20047;-55
2023/07/14 12:37:00;;;;;;;16.00;3.97;;;39.50;75.30;;;;;;5084055;28;20411;-56
2023/07/14 12:40:12;;;;;;;13.98;4.15;;;40.10;74.80;;;;;;5081363;28;20047;-52
2023/07/14 12:43:55;;;;;;;11.82;4.57;;;40.20;75.20;;;;;;5070451;28;20044;-54
2023/07/14 12:47:00;;;;;;;19.80;4.38;;;39.50;75.90;;;;;;5069998;28;20039;-56
2023/07/14 12:50:04;;;;;;;10.18;4.20;;;39.20;75.70;;;;;;5078722;28;20055;-56
2023/07/14 12:53:16;;;;;;;11.32;4.53;;;39.30;76.20;;;;;;5090227;28;20036;-51
2023/07/14 12:56:20;;;;;;;11.25;4.15;;;40.30;76.30;;;;;;5087536;28;20050;-52
2023/07/14 12:59:25;;;;;;;8.70;4.22;;;39.60;77.00;;;;;;5091430;28;20043;-54
2023/07/14 13:02:29;;;;;;;13.68;4.55;;;39.10;76.70;;;;;;5085843;28;20039;-55
2023/07/14 13:05:36;;;;;;;15.45;4.90;;;39.50;75.30;;;;;;5093365;28;20042;-56
2023/07/14 13:08:45;;;;;;;8.52;4.10;;;39.40;77.90;;;;;;5093845;28;20051;-53
2023/07/14 13:11:51;;;;;;;9.15;3.90;;;39.70;77.20;;;;;;5087824;28;20045;-53
2023/07/14 13:14:57;;;;;;;6.68;3.78;;;40.40;75.90;;;;;;5084424;28;20537;-52
2023/07/14 13:18:16;;;;;;;11.23;4.03;;;40.20;74.70;;;;;;5090401;28;20056;-56
2023/07/14 13:21:34;;;;;;;13.15;3.83;;;41.00;75.90;;;;;;5083977;28;20039;-56
2023/07/14 13:24:38;;;;;;;11.73;4.00;;;41.60;74.30;;;;;;5084427;28;20024;-55
2023/07/14 13:27:44;;;;;;;9.60;3.78;;;41.30;74.40;;;;;;5088275;28;20043;-55
2023/07/14 13:30:48;;;;;;;10.82;3.55;;;41.20;75.40;;;;;;5083813;28;20043;-53
2023/07/14 13:33:52;;;;;;;8.13;3.65;;;41.00;74.70;;;;;;5088263;28;20054;-56
2023/07/14 13:37:02;;;;;;;9.30;3.67;;;40.70;74.50;;;;;;5088831;28;20032;-56
2023/07/14 13:40:21;;;;;;;8.25;3.33;;;40.90;75.20;;;;;;5081820;28;20537;-55
2023/07/14 13:43:25;;;;;;;5.53;3.13;;;41.00;72.00;;;;;;5083347;28;20395;-53
2023/07/14 13:46:33;;;;;;;8.82;3.13;;;39.20;73.30;;;;;;5088387;28;20040;-55
2023/07/14 13:49:37;;;;;;;6.93;3.20;;;38.40;73.70;;;;;;5086675;28;20047;-54
2023/07/14 13:52:41;;;;;;;9.75;3.42;;;38.60;72.20;;;;;;5085050;28;20035;-55
2023/07/14 13:55:47;;;;;;;8.98;3.30;;;37.10;78.10;;;;;;5084905;28;20406;-52
2023/07/14 13:58:57;;;;;;;12.25;3.97;;;37.50;75.80;;;;;;5084381;28;20055;-55
2023/07/14 14:02:23;;;;;;;10.10;4.38;;;38.30;77.80;;;;;;5083698;28;20043;-54
2023/07/14 14:05:33;;;;;;;9.82;3.38;;;38.60;75.60;;;;;;5079022;28;20039;-54
2023/07/14 14:08:37;;;;;;;14.75;3.53;;;38.10;76.90;;;;;;5077559;28;20047;-51
2023/07/14 14:11:41;;;;;;;15.90;3.53;;;37.20;77.20;;;;;;5084189;28;20115;-55
2023/07/14 14:14:46;;;;;;;9.70;3.55;;;36.30;76.50;;;;;;5082765;28;20048;-54
2023/07/14 14:17:57;;;;;;;12.90;3.58;;;35.60;79.20;;;;;;5076270;28;20048;-54
2023/07/14 14:21:02;;;;;;;11.15;4.10;;;35.60;80.00;;;;;;5083306;28;20047;-55
2023/07/14 14:24:08;;;;;;;7.93;3.75;;;36.30;79.70;;;;;;5091794;28;20427;-52
2023/07/14 14:27:12;;;;;;;11.10;4.00;;;36.50;78.10;;;;;;5084790;28;20040;-56
2023/07/14 14:30:17;;;;;;;13.13;4.47;;;36.50;78.80;;;;;;5090086;28;20043;-55
2023/07/14 14:33:25;;;;;;;9.98;4.05;;;36.80;79.00;;;;;;5086580;28;20051;-51
2023/07/14 14:36:30;;;;;;;18.33;4.18;;;37.20;78.80;;;;;;5085875;28;20047;-53
2023/07/14 14:39:34;;;;;;;8.98;4.32;;;37.40;77.10;;;;;;5083800;28;20051;-52
2023/07/14 14:42:37;;;;;;;6.30;3.67;;;37.40;75.80;;;;;;5082957;28;20043;-53
2023/07/14 14:45:43;;;;;;;14.10;3.83;;;37.50;77.80;;;;;;5081732;28;20043;-55
2023/07/14 14:48:47;;;;;;;11.95;3.75;;;37.50;75.40;;;;;;5082017;28;20047;-55
2023/07/14 14:51:54;;;;;;;15.55;4.10;;;36.80;78.30;;;;;;5085590;28;20075;-52
2023/07/14 14:55:04;;;;;;;11.85;4.05;;;36.80;78.50;;;;;;5088319;28;20051;-52
2023/07/14 14:58:23;;;;;;;8.55;3.70;;;36.70;77.00;;;;;;5081952;28;20059;-55
2023/07/14 15:01:35;;;;;;;9.05;4.18;;;36.90;77.90;;;;;;5083128;28;20058;-55
2023/07/14 15:04:40;;;;;;;9.05;4.05;;;37.10;80.30;;;;;;5084614;28;20032;-53
2023/07/14 15:07:48;;;;;;;10.57;4.13;;;37.20;79.30;;;;;;5072520;28;20043;-52
2023/07/14 15:10:53;;;;;;;8.60;4.22;;;37.10;81.20;;;;;;5079716;28;20055;-56
2023/07/14 15:14:03;;;;;;;9.38;4.22;;;36.90;81.00;;;;;;5074992;28;20048;-55
2023/07/14 15:17:23;;;;;;;11.63;4.47;;;36.50;81.10;;;;;;5089069;28;20063;-55
2023/07/14 15:20:28;;;;;;;12.80;4.18;;;36.50;82.30;;;;;;5087056;28;20122;-52
2023/07/14 15:23:32;;;;;;;7.13;4.03;;;36.50;82.90;;;;;;5081213;28;20039;-52
2023/07/14 15:26:43;;;;;;;8.80;4.25;;;36.70;84.00;;;;;;5070879;28;20044;-57
2023/07/14 15:29:48;;;;;;;11.00;4.88;;;37.00;81.60;;;;;;5070868;28;20071;-52
2023/07/14 15:32:54;;;;;;;9.10;3.88;;;37.20;81.00;;;;;;5070053;28;20636;-55
2023/07/14 15:35:58;;;;;;;13.70;4.93;;;37.20;82.90;;;;;;5070775;28;20041;-52
2023/07/14 15:39:02;;;;;;;11.18;5.22;;;37.10;83.10;;;;;;5070878;28;20118;-52
2023/07/14 15:42:11;;;;;;;18.30;5.18;;;37.00;83.80;;;;;;5070502;28;20043;-56
2023/07/14 15:45:16;;;;;;;10.70;4.25;;;36.90;84.80;;;;;;5069307;28;20048;-52
2023/07/14 15:48:24;;;;;;;11.98;4.90;;;36.60;83.30;;;;;;5070522;28;20405;-56
2023/07/14 15:51:32;;;;;;;12.60;4.63;;;36.20;84.40;;;;;;5070093;28;20055;-53
2023/07/14 15:54:36;;;;;;;11.65;4.40;;;36.00;85.30;;;;;;5070004;28;20056;-52
2023/07/14 15:57:41;;;;;;;14.65;5.07;;;36.00;85.90;;;;;;5069902;28;20043;-55
2023/07/14 16:00:46;;;;;;;17.75;5.57;;;34.90;85.20;;;;;;5070303;28;20043;-52
2023/07/14 16:03:53;;;;;;;17.38;4.97;;;34.90;85.80;;;;;;5069925;28;20047;-53
2023/07/14 16:06:57;;;;;;;11.13;5.25;;;34.40;86.30;;;;;;5070526;28;20051;-52
2023/07/14 16:10:04;;;;;;;13.77;5.03;;;34.20;89.50;;;;;;5070561;28;20048;-55